Stuttgart Airport

Airport
ICAO code: 
EDDS
IATA Code: 
STR
Summary
ICAO Region: 
EUR
Territory: 
Location: 
Echterdingen, Stuttgart,
Serving: 
Stuttgart
Elevation: 
1276 ft
Coordinates: 
Aerial View: 
48° 41' 16.983" N, 9° 12' 37.356" E
Metar
Observation
EDDS 200950Z 25009KT 9999 FEW021 03/00 Q1025 NOSIG
Station
Stuttgart-Echterdingen
Date/Time
2022-01-20 09:50:00
Wind direction
250°
Wind speed
09 kts
Lowest cloud amount
few clouds
Temperature
3°C
Dew point
0°C
Humidity
80%
QNH
1025 hPa
Weather condition
n/a

Description

International airport serving Stuttgart, Germany.

Climatology

Temperate Marine climate/Oceanic climate (Köppen climate classification Cfb) - Moderately cool summer and comparatively warm winter.

Runways

Designator Length Width Surface Rops
7/25 3345 45 CON Yes/Yes
Airport map: 
Aerial View: 

SKYbrary Partners:

Safety knowledge contributed by: